createdAt,value
2022-11-16T00:01:00.903Z,62.17
2022-11-16T00:02:04.093Z,61.75
2022-11-16T00:03:06.764Z,63.15
2022-11-16T00:04:11.982Z,63.45
2022-11-16T00:05:15.054Z,66.00
2022-11-16T00:06:18.194Z,78.70
2022-11-16T00:07:21.334Z,76.05
2022-11-16T00:08:24.377Z,78.47
2022-11-16T00:09:28.879Z,77.75
2022-11-16T00:10:31.503Z,80.45
2022-11-16T00:11:34.805Z,69.43
2022-11-16T00:12:39.515Z,67.82
2022-11-16T00:13:43.618Z,61.10
2022-11-16T00:14:46.303Z,64.03
2022-11-16T00:15:58.526Z,66.83
2022-11-16T00:17:02.846Z,61.63
2022-11-16T00:18:05.872Z,63.10
2022-11-16T00:19:10.588Z,69.20
2022-11-16T00:20:13.352Z,64.93
2022-11-16T00:21:16.011Z,66.75
2022-11-16T00:22:18.663Z,72.35
2022-11-16T00:23:22.308Z,70.25
2022-11-16T00:24:25.200Z,79.85
2022-11-16T00:25:29.051Z,78.53
2022-11-16T00:26:31.895Z,80.77
2022-11-16T00:27:34.724Z,76.10
2022-11-16T00:28:37.797Z,71.07
2022-11-16T00:29:40.464Z,67.45
2022-11-16T00:30:43.507Z,62.08
2022-11-16T00:31:46.623Z,64.90
2022-11-16T00:32:49.241Z,65.37
2022-11-16T00:33:52.526Z,62.03
2022-11-16T00:34:55.549Z,70.97
2022-11-16T00:35:58.280Z,67.40
2022-11-16T00:37:01.119Z,70.07
2022-11-16T00:38:03.814Z,63.90
2022-11-16T00:39:06.792Z,67.40
2022-11-16T00:40:10.549Z,66.37
2022-11-16T00:41:13.452Z,62.72
2022-11-16T00:42:16.032Z,64.50
2022-11-16T00:43:19.138Z,63.13
2022-11-16T00:44:22.117Z,63.50
2022-11-16T00:45:24.718Z,71.40
2022-11-16T00:46:27.442Z,66.28
2022-11-16T00:47:30.190Z,64.80
2022-11-16T00:48:33.130Z,65.87
2022-11-16T00:49:38.485Z,70.03
2022-11-16T00:50:41.540Z,64.00
2022-11-16T00:51:44.223Z,64.93
2022-11-16T00:52:46.946Z,63.75
2022-11-16T00:53:49.728Z,67.10
2022-11-16T00:54:52.748Z,66.97
2022-11-16T00:55:55.460Z,62.40
2022-11-16T00:56:58.112Z,65.72
2022-11-16T00:58:01.812Z,63.97
2022-11-16T00:59:04.902Z,65.60
2022-11-16T01:00:09.390Z,66.40
2022-11-16T01:01:12.374Z,74.62
2022-11-16T01:02:15.308Z,78.70
2022-11-16T01:03:18.023Z,75.37
2022-11-16T01:04:22.029Z,69.78
2022-11-16T01:05:25.242Z,66.57
2022-11-16T01:06:28.218Z,66.87
2022-11-16T01:07:30.871Z,66.40
2022-11-16T01:08:35.246Z,67.30
2022-11-16T01:09:38.119Z,66.17
2022-11-16T01:10:42.002Z,71.80
2022-11-16T01:12:04.845Z,74.03
2022-11-16T01:13:07.982Z,73.68
2022-11-16T01:14:11.839Z,74.68
2022-11-16T01:15:15.651Z,81.00
2022-11-16T01:16:20.651Z,74.07
2022-11-16T01:17:23.338Z,70.95
2022-11-16T01:18:25.991Z,64.82
2022-11-16T01:19:28.804Z,63.60
2022-11-16T01:20:31.705Z,70.67
2022-11-16T01:21:34.762Z,67.07
2022-11-16T01:22:38.935Z,70.25
2022-11-16T01:23:41.630Z,68.62
2022-11-16T01:24:46.769Z,71.70
2022-11-16T01:25:57.478Z,67.60
2022-11-16T01:27:01.044Z,69.85
2022-11-16T01:28:04.087Z,72.40
2022-11-16T01:29:07.281Z,95.87
2022-11-16T01:30:13.367Z,95.50
2022-11-16T01:31:17.253Z,104.70
2022-11-16T01:32:20.534Z,93.03
2022-11-16T01:33:23.744Z,99.03
2022-11-16T01:34:27.028Z,93.57
2022-11-16T01:35:30.362Z,88.47
2022-11-16T01:36:33.325Z,96.70
2022-11-16T01:37:37.182Z,97.22
2022-11-16T01:38:45.737Z,91.28
2022-11-16T01:39:50.056Z,86.07
2022-11-16T01:40:52.847Z,91.00
2022-11-16T01:41:55.696Z,79.60
2022-11-16T01:42:58.669Z,79.70
2022-11-16T01:44:04.586Z,82.88
2022-11-16T01:45:31.219Z,79.62
2022-11-16T01:46:34.344Z,83.40
2022-11-16T01:47:37.216Z,78.03
2022-11-16T01:48:40.238Z,92.10
2022-11-16T01:49:56.583Z,96.53
2022-11-16T01:51:00.451Z,93.25
2022-11-16T01:52:08.564Z,87.27
2022-11-16T01:53:13.348Z,79.83
2022-11-16T01:54:16.929Z,79.55
2022-11-16T01:55:22.741Z,80.30
2022-11-16T01:56:27.699Z,95.07
2022-11-16T01:57:35.588Z,91.78
2022-11-16T01:58:39.597Z,97.37
2022-11-16T01:59:46.301Z,87.60
2022-11-16T02:00:49.332Z,78.28
2022-11-16T02:01:53.065Z,83.05
2022-11-16T02:02:56.442Z,90.80
2022-11-16T02:04:01.065Z,90.67
2022-11-16T02:05:04.669Z,80.03
2022-11-16T02:06:24.852Z,78.60
2022-11-16T02:08:11.780Z,76.93
2022-11-16T02:09:53.773Z,86.60
2022-11-16T02:11:23.177Z,97.18
2022-11-16T02:12:49.181Z,96.93
2022-11-16T02:14:31.612Z,93.87
2022-11-16T02:15:51.318Z,83.68
2022-11-16T02:17:06.866Z,74.27
2022-11-16T02:20:40.636Z,64.55
2022-11-16T02:22:15.719Z,74.40
2022-11-16T02:23:47.340Z,72.45
2022-11-16T02:25:12.995Z,74.10
2022-11-16T02:26:52.538Z,74.53
2022-11-16T02:28:07.677Z,71.43
2022-11-16T02:29:19.364Z,75.55
2022-11-16T02:30:23.231Z,67.73
2022-11-16T02:31:33.032Z,71.47
2022-11-16T02:32:51.706Z,72.47
2022-11-16T02:33:57.347Z,76.15
2022-11-16T02:35:21.782Z,73.50
2022-11-16T02:36:25.772Z,74.87
2022-11-16T02:37:33.410Z,72.70
2022-11-16T02:38:40.507Z,75.95
2022-11-16T02:39:46.533Z,75.62
2022-11-16T02:40:55.773Z,74.87
2022-11-16T02:42:01.811Z,71.13
2022-11-16T02:43:10.132Z,73.30
2022-11-16T02:44:17.986Z,74.18
2022-11-16T02:45:25.597Z,79.47
2022-11-16T02:46:32.403Z,86.50
2022-11-16T02:47:36.467Z,83.20
2022-11-16T02:48:47.382Z,87.32
2022-11-16T02:49:59.543Z,91.53
2022-11-16T02:51:06.504Z,78.78
2022-11-16T02:52:11.879Z,80.47
2022-11-16T02:53:15.478Z,76.20
2022-11-16T02:54:20.905Z,77.10
2022-11-16T02:55:27.637Z,78.53
2022-11-16T02:56:52.864Z,71.40
2022-11-16T02:58:00.702Z,77.15
2022-11-16T02:59:03.763Z,76.10
2022-11-16T03:00:08.848Z,77.80
2022-11-16T03:01:35.797Z,78.53
2022-11-16T03:02:59.512Z,76.68
2022-11-16T03:04:08.984Z,70.03
2022-11-16T03:05:18.059Z,68.93
2022-11-16T03:06:27.884Z,79.17
2022-11-16T03:07:36.860Z,77.47
2022-11-16T03:08:53.292Z,85.60
2022-11-16T03:09:58.111Z,81.45
2022-11-16T03:11:22.545Z,77.47
2022-11-16T03:12:31.199Z,83.85
2022-11-16T03:13:37.286Z,83.87
2022-11-16T03:14:53.618Z,79.50
2022-11-16T03:15:58.103Z,81.15
2022-11-16T03:17:03.803Z,80.93
2022-11-16T03:18:08.880Z,83.60
2022-11-16T03:19:15.614Z,82.20
2022-11-16T03:20:31.975Z,87.37
2022-11-16T03:21:43.626Z,86.18
2022-11-16T03:22:57.566Z,83.50
2022-11-16T03:24:00.422Z,86.70
2022-11-16T03:25:04.979Z,79.90
2022-11-16T03:26:11.984Z,82.35
2022-11-16T03:27:29.927Z,89.47
2022-11-16T03:28:43.877Z,86.77
2022-11-16T03:29:52.822Z,82.33
2022-11-16T03:31:01.086Z,87.20
2022-11-16T03:32:20.784Z,83.22
2022-11-16T03:33:34.777Z,82.97
2022-11-16T03:34:41.724Z,84.30
2022-11-16T03:35:50.457Z,81.37
2022-11-16T03:36:55.938Z,82.18
2022-11-16T03:38:02.497Z,79.90
2022-11-16T03:39:19.609Z,94.50
2022-11-16T03:40:24.670Z,77.80
2022-11-16T03:41:30.036Z,86.07
2022-11-16T03:42:33.486Z,86.45
2022-11-16T03:43:39.092Z,88.82
2022-11-16T03:44:46.590Z,92.68
2022-11-16T03:45:49.608Z,82.97
2022-11-16T03:46:52.676Z,79.12
2022-11-16T03:47:55.469Z,85.82
2022-11-16T03:48:59.633Z,82.72
2022-11-16T03:50:02.558Z,103.30
2022-11-16T03:51:07.967Z,91.80
2022-11-16T03:52:11.172Z,87.50
2022-11-16T03:53:13.819Z,86.20
2022-11-16T03:54:17.061Z,83.45
2022-11-16T03:55:20.200Z,76.80
2022-11-16T03:56:23.129Z,97.45
2022-11-16T03:57:26.807Z,89.60
2022-11-16T03:58:30.539Z,84.13
2022-11-16T03:59:34.052Z,89.10
2022-11-16T04:00:36.748Z,87.70
2022-11-16T04:01:44.901Z,83.40
2022-11-16T04:02:48.191Z,93.23
2022-11-16T04:03:51.051Z,93.10
2022-11-16T04:05:12.550Z,85.10
2022-11-16T04:06:33.716Z,84.25
2022-11-16T04:07:55.290Z,96.47
2022-11-16T04:09:16.908Z,90.78
2022-11-16T04:10:38.663Z,85.60
2022-11-16T04:12:00.007Z,82.82
2022-11-16T04:13:22.085Z,81.68
2022-11-16T04:14:45.472Z,97.00
2022-11-16T04:16:07.380Z,109.07
2022-11-16T04:17:33.018Z,90.43
2022-11-16T04:18:54.614Z,84.20
2022-11-16T04:20:16.420Z,89.72
2022-11-16T04:21:44.573Z,80.35
2022-11-16T04:23:18.493Z,86.80
2022-11-16T04:24:25.118Z,79.25
2022-11-16T04:25:32.506Z,87.12
2022-11-16T04:26:54.353Z,90.10
2022-11-16T04:28:16.631Z,95.23
2022-11-16T04:29:20.042Z,83.90
2022-11-16T04:30:22.988Z,100.47
2022-11-16T04:31:44.589Z,81.10
2022-11-16T04:33:06.756Z,91.35
2022-11-16T04:34:27.988Z,87.88
2022-11-16T04:35:49.716Z,90.20
2022-11-16T04:37:10.941Z,92.15
2022-11-16T04:38:14.459Z,129.32
2022-11-16T04:39:17.150Z,169.13
2022-11-16T04:40:23.331Z,180.83
2022-11-16T04:41:45.371Z,220.80
2022-11-16T04:42:52.384Z,178.95
2022-11-16T04:43:55.142Z,136.60
2022-11-16T04:45:23.647Z,102.28
2022-11-16T04:46:45.371Z,85.93
2022-11-16T04:47:49.757Z,124.12
2022-11-16T04:48:53.303Z,98.82
2022-11-16T04:49:56.009Z,167.62
2022-11-16T04:50:58.855Z,180.63
2022-11-16T04:52:02.267Z,258.60
2022-11-16T04:53:06.671Z,235.13
2022-11-16T04:54:10.229Z,130.70
2022-11-16T04:55:13.935Z,143.00
2022-11-16T04:56:16.902Z,120.45
2022-11-16T04:57:20.874Z,130.63
2022-11-16T04:58:24.115Z,133.93
2022-11-16T04:59:26.760Z,147.20
2022-11-16T05:00:30.028Z,124.28
2022-11-16T05:01:51.545Z,122.95
2022-11-16T05:02:59.743Z,102.03
2022-11-16T05:04:04.480Z,128.07
2022-11-16T05:05:08.040Z,107.20
2022-11-16T05:06:10.911Z,92.30
2022-11-16T05:07:15.227Z,99.80
2022-11-16T05:08:18.463Z,100.03
2022-11-16T05:09:21.483Z,135.70
2022-11-16T05:10:24.705Z,115.82
2022-11-16T05:11:27.947Z,104.30
2022-11-16T05:12:31.210Z,97.93
2022-11-16T05:13:34.369Z,103.83
2022-11-16T05:14:37.432Z,98.57
2022-11-16T05:15:40.250Z,99.35
2022-11-16T05:16:43.209Z,106.95
2022-11-16T05:17:46.732Z,132.10
2022-11-16T05:19:09.780Z,102.72
2022-11-16T05:20:31.370Z,107.65
2022-11-16T05:21:34.409Z,133.35
2022-11-16T05:22:37.555Z,102.28
2022-11-16T05:23:58.677Z,121.62
2022-11-16T05:25:02.088Z,111.00
2022-11-16T05:26:04.916Z,104.43
2022-11-16T05:27:11.100Z,100.10
2022-11-16T05:28:13.972Z,111.60
2022-11-16T05:29:16.808Z,106.20
2022-11-16T05:30:19.779Z,127.62
2022-11-16T05:31:22.696Z,117.62
2022-11-16T05:32:27.359Z,120.82
2022-11-16T05:33:32.585Z,116.15
2022-11-16T05:34:35.312Z,165.30
2022-11-16T05:35:38.453Z,163.00
2022-11-16T05:36:42.335Z,125.53
2022-11-16T05:37:44.917Z,115.88
2022-11-16T05:38:53.890Z,115.70
2022-11-16T05:39:59.429Z,95.82
2022-11-16T05:41:03.647Z,125.68
2022-11-16T05:42:07.149Z,102.20
2022-11-16T05:43:09.819Z,118.72
2022-11-16T05:44:13.609Z,174.23
2022-11-16T05:45:20.846Z,125.25
2022-11-16T05:46:25.000Z,134.20
2022-11-16T05:47:29.100Z,127.57
2022-11-16T05:48:32.750Z,105.78
2022-11-16T05:49:35.777Z,134.75
2022-11-16T05:50:42.770Z,158.73
2022-11-16T05:51:48.026Z,116.05
2022-11-16T05:52:50.899Z,126.85
2022-11-16T05:53:53.839Z,124.38
2022-11-16T05:54:56.874Z,106.25
2022-11-16T05:55:59.900Z,88.93
2022-11-16T05:57:03.488Z,90.13
2022-11-16T05:58:06.196Z,87.43
2022-11-16T05:59:15.217Z,90.18
2022-11-16T06:00:19.688Z,88.85
2022-11-16T06:01:23.383Z,94.62
2022-11-16T06:02:26.164Z,131.12
2022-11-16T06:03:30.313Z,128.95
2022-11-16T06:04:33.934Z,147.35
2022-11-16T06:05:40.524Z,121.25
2022-11-16T06:06:44.738Z,113.88
2022-11-16T06:07:47.627Z,182.93
2022-11-16T06:08:50.390Z,173.03
2022-11-16T06:09:53.597Z,119.62
2022-11-16T06:10:57.051Z,121.50
2022-11-16T06:12:00.717Z,128.98
2022-11-16T06:13:04.161Z,105.85
2022-11-16T06:14:08.139Z,83.93
2022-11-16T06:15:11.375Z,79.25
2022-11-16T06:16:14.426Z,82.97
2022-11-16T06:17:18.205Z,89.30
2022-11-16T06:18:21.372Z,84.93
2022-11-16T06:19:29.595Z,99.37
2022-11-16T06:20:37.510Z,102.15
2022-11-16T06:21:40.398Z,96.20
2022-11-16T06:22:43.964Z,90.55
2022-11-16T06:23:47.361Z,98.50
2022-11-16T06:24:50.071Z,84.53
2022-11-16T06:25:55.667Z,98.05
2022-11-16T06:26:58.866Z,98.90
2022-11-16T06:28:07.522Z,106.28
2022-11-16T06:29:11.043Z,96.00
2022-11-16T06:30:14.328Z,102.10
2022-11-16T06:31:17.115Z,97.93
2022-11-16T06:32:20.147Z,80.70
2022-11-16T06:33:23.826Z,97.07
2022-11-16T06:34:26.498Z,90.38
2022-11-16T06:35:29.252Z,90.43
2022-11-16T06:36:32.970Z,101.80
2022-11-16T06:37:35.638Z,93.68
2022-11-16T06:38:39.052Z,97.00
2022-11-16T06:39:42.316Z,103.67
2022-11-16T06:40:46.409Z,173.53
2022-11-16T06:41:49.056Z,97.90
2022-11-16T06:42:51.693Z,94.55
2022-11-16T06:43:55.440Z,106.47
2022-11-16T06:44:59.092Z,98.37
2022-11-16T06:46:02.078Z,100.05
2022-11-16T06:47:04.771Z,110.78
2022-11-16T06:48:08.400Z,97.93
2022-11-16T06:49:12.176Z,99.37
2022-11-16T06:50:19.190Z,77.50
2022-11-16T06:51:21.911Z,87.97
2022-11-16T06:52:24.493Z,94.13
2022-11-16T06:53:29.473Z,134.27
2022-11-16T06:54:33.605Z,98.15
2022-11-16T06:55:37.225Z,105.57
2022-11-16T06:56:40.156Z,126.32
2022-11-16T06:57:43.325Z,97.50
2022-11-16T06:58:45.924Z,144.85
2022-11-16T06:59:50.888Z,99.03
2022-11-16T07:00:53.759Z,88.10
2022-11-16T07:01:56.645Z,101.07
2022-11-16T07:02:59.227Z,84.97
2022-11-16T07:04:02.047Z,88.45
2022-11-16T07:05:05.978Z,98.75
2022-11-16T07:06:10.690Z,87.80
2022-11-16T07:07:15.801Z,93.95
2022-11-16T07:08:18.499Z,91.65
2022-11-16T07:09:21.359Z,118.40
2022-11-16T07:10:24.516Z,115.18
2022-11-16T07:11:27.819Z,136.00
2022-11-16T07:12:30.510Z,153.80
2022-11-16T07:13:34.118Z,115.80
2022-11-16T07:14:37.471Z,120.32
2022-11-16T07:15:40.579Z,101.25
2022-11-16T07:16:43.610Z,107.53
2022-11-16T07:17:46.740Z,88.10
2022-11-16T07:18:49.502Z,96.20
2022-11-16T07:19:52.566Z,88.45
2022-11-16T07:20:55.547Z,117.15
2022-11-16T07:21:58.121Z,87.23
2022-11-16T07:23:02.512Z,88.23
2022-11-16T07:24:05.239Z,100.32
2022-11-16T07:25:08.529Z,98.22
2022-11-16T07:26:11.987Z,93.15
2022-11-16T07:27:14.873Z,92.28
2022-11-16T07:28:18.948Z,86.57
2022-11-16T07:29:22.703Z,101.28
2022-11-16T07:30:34.777Z,97.60
2022-11-16T07:31:37.961Z,95.22
2022-11-16T07:32:46.233Z,102.97
2022-11-16T07:33:49.321Z,110.57
2022-11-16T07:34:52.527Z,104.10
2022-11-16T07:36:00.094Z,107.05
2022-11-16T07:37:03.066Z,155.80
2022-11-16T07:38:05.640Z,121.87
2022-11-16T07:39:10.346Z,142.85
2022-11-16T07:40:14.101Z,162.00
2022-11-16T07:41:19.478Z,111.88
2022-11-16T07:42:23.417Z,99.43
2022-11-16T07:43:26.639Z,124.77
2022-11-16T07:44:30.375Z,110.97
2022-11-16T07:45:34.090Z,114.97
2022-11-16T07:46:47.914Z,118.45
2022-11-16T07:47:52.504Z,101.68
2022-11-16T07:48:57.064Z,115.00
2022-11-16T07:50:01.479Z,99.68
2022-11-16T07:51:06.886Z,113.78
2022-11-16T07:52:11.201Z,123.90
2022-11-16T07:53:15.566Z,100.55
2022-11-16T07:54:18.158Z,126.03
2022-11-16T07:55:20.782Z,126.73
2022-11-16T07:56:24.921Z,99.65
2022-11-16T07:57:27.601Z,92.62
2022-11-16T07:58:33.651Z,103.50
2022-11-16T07:59:37.953Z,111.40
2022-11-16T08:00:40.729Z,122.07
2022-11-16T08:01:43.966Z,104.43
2022-11-16T08:02:46.787Z,104.22
2022-11-16T08:03:53.488Z,109.63
2022-11-16T08:04:56.161Z,130.53
2022-11-16T08:06:04.567Z,115.07
2022-11-16T08:07:08.679Z,141.68
2022-11-16T08:08:12.989Z,115.03
2022-11-16T08:09:15.784Z,122.28
2022-11-16T08:10:19.082Z,95.95
2022-11-16T08:11:21.772Z,108.85
2022-11-16T08:12:25.342Z,112.25
2022-11-16T08:13:28.545Z,104.50
2022-11-16T08:14:31.576Z,107.32
2022-11-16T08:15:34.228Z,102.13
2022-11-16T08:16:37.517Z,107.47
2022-11-16T08:17:41.417Z,99.75
2022-11-16T08:18:47.089Z,119.37
2022-11-16T08:19:51.240Z,117.35
2022-11-16T08:20:54.498Z,118.87
2022-11-16T08:21:57.997Z,105.22
2022-11-16T08:23:02.298Z,96.95
2022-11-16T08:24:07.544Z,101.70
2022-11-16T08:25:12.369Z,100.45
2022-11-16T08:26:18.538Z,107.37
2022-11-16T08:27:21.455Z,111.83
2022-11-16T08:28:26.470Z,107.10
2022-11-16T08:29:29.581Z,119.60
2022-11-16T08:30:32.609Z,93.20
2022-11-16T08:31:35.884Z,99.60
2022-11-16T08:32:39.123Z,97.80
2022-11-16T08:33:42.203Z,95.80
2022-11-16T08:34:45.757Z,91.00
2022-11-16T08:35:48.796Z,99.32
2022-11-16T08:36:51.533Z,84.13
2022-11-16T08:37:54.429Z,93.07
2022-11-16T08:38:58.877Z,101.38
2022-11-16T08:40:03.317Z,92.50
2022-11-16T08:41:07.295Z,112.57
2022-11-16T08:42:10.042Z,98.40
2022-11-16T08:43:12.918Z,91.15
2022-11-16T08:44:15.821Z,94.10
2022-11-16T08:45:18.999Z,103.38
2022-11-16T08:46:22.198Z,92.35
2022-11-16T08:47:25.354Z,79.33
2022-11-16T08:48:28.164Z,97.70
2022-11-16T08:49:31.959Z,97.18
2022-11-16T08:50:55.518Z,98.62
2022-11-16T08:51:57.254Z,95.22
2022-11-16T08:53:00.293Z,86.40
2022-11-16T08:54:04.092Z,99.68
2022-11-16T08:55:07.706Z,84.60
2022-11-16T08:56:13.379Z,98.32
2022-11-16T08:57:16.191Z,105.18
2022-11-16T08:58:19.055Z,113.33
2022-11-16T08:59:21.711Z,102.20
2022-11-16T09:00:25.424Z,93.60
2022-11-16T09:01:30.137Z,98.18
2022-11-16T09:02:32.851Z,101.62
2022-11-16T09:03:36.038Z,94.95
2022-11-16T09:04:38.684Z,108.55
2022-11-16T09:05:42.663Z,109.28
2022-11-16T09:06:46.149Z,104.28
2022-11-16T09:07:48.762Z,96.65
2022-11-16T09:08:51.737Z,104.93
2022-11-16T09:09:54.356Z,107.93
2022-11-16T09:10:57.498Z,103.20
2022-11-16T09:12:00.080Z,100.80
2022-11-16T09:13:03.203Z,101.75
2022-11-16T09:14:12.742Z,95.00
2022-11-16T09:15:15.542Z,98.15
2022-11-16T09:16:21.067Z,94.37
2022-11-16T09:17:23.815Z,90.95
2022-11-16T09:18:27.488Z,89.93
2022-11-16T09:19:30.410Z,86.03
2022-11-16T09:20:33.239Z,91.70
2022-11-16T09:21:37.696Z,93.97
2022-11-16T09:22:40.424Z,86.87
2022-11-16T09:23:42.980Z,86.63
2022-11-16T09:24:45.615Z,83.40
2022-11-16T09:25:48.660Z,99.00
2022-11-16T09:26:51.673Z,99.35
2022-11-16T09:27:55.813Z,94.65
2022-11-16T09:29:00.783Z,112.32
2022-11-16T09:30:05.214Z,114.27
2022-11-16T09:31:09.245Z,89.93
2022-11-16T09:32:12.118Z,90.07
2022-11-16T09:33:14.908Z,81.80
2022-11-16T09:34:17.525Z,78.10
2022-11-16T09:35:21.006Z,80.38
2022-11-16T09:36:24.338Z,82.00
2022-11-16T09:37:27.702Z,74.28
2022-11-16T09:38:54.182Z,78.03
2022-11-16T09:39:53.331Z,85.43
2022-11-16T09:40:56.613Z,80.13
2022-11-16T09:42:53.741Z,89.40
2022-11-16T09:44:09.586Z,76.53
2022-11-16T09:45:24.986Z,73.43
2022-11-16T09:46:39.268Z,68.57
2022-11-16T09:47:51.809Z,73.32
2022-11-16T09:48:58.331Z,74.40
2022-11-16T09:50:04.373Z,74.07
2022-11-16T09:51:09.035Z,71.18
2022-11-16T09:52:41.432Z,67.25
2022-11-16T09:54:06.079Z,68.03
2022-11-16T09:55:58.578Z,63.20
2022-11-16T09:57:12.033Z,70.32
2022-11-16T09:58:22.261Z,72.07
2022-11-16T09:59:26.267Z,101.05
2022-11-16T10:00:30.725Z,83.87
2022-11-16T10:01:41.472Z,72.82
2022-11-16T10:02:58.340Z,73.20
2022-11-16T10:04:08.822Z,77.90
2022-11-16T10:05:21.965Z,102.45
2022-11-16T10:06:38.807Z,87.60
2022-11-16T10:07:55.367Z,87.33
2022-11-16T10:08:58.037Z,129.77
2022-11-16T10:10:00.729Z,83.95
2022-11-16T10:11:19.822Z,69.40
2022-11-16T10:12:56.110Z,71.43
2022-11-16T10:14:23.776Z,75.43
2022-11-16T10:15:53.192Z,91.72
2022-11-16T10:17:40.002Z,70.80
2022-11-16T10:18:48.087Z,84.53
2022-11-16T10:19:57.083Z,74.50
2022-11-16T10:21:18.763Z,72.30
2022-11-16T10:22:33.329Z,70.85
2022-11-16T10:24:03.041Z,67.53
2022-11-16T10:25:15.126Z,67.90
2022-11-16T10:26:25.987Z,98.82
2022-11-16T10:27:44.703Z,95.80
2022-11-16T10:29:10.264Z,84.82
2022-11-16T10:30:17.250Z,71.57
2022-11-16T10:31:33.607Z,71.05
2022-11-16T10:33:06.668Z,66.27
2022-11-16T10:34:30.393Z,96.63
2022-11-16T10:35:53.744Z,98.78
2022-11-16T10:37:03.334Z,102.68
2022-11-16T10:38:14.614Z,87.20
2022-11-16T10:39:19.345Z,87.22
2022-11-16T10:40:32.931Z,121.22
2022-11-16T10:41:41.481Z,103.10
2022-11-16T10:42:46.787Z,102.20
2022-11-16T10:43:49.673Z,98.40
2022-11-16T10:45:17.923Z,115.07
2022-11-16T10:46:25.718Z,108.30
2022-11-16T10:47:54.161Z,82.43
2022-11-16T10:49:21.836Z,80.18
2022-11-16T10:50:37.523Z,77.10
2022-11-16T10:51:40.278Z,77.28
2022-11-16T10:52:44.660Z,73.03
2022-11-16T10:53:47.473Z,83.82
2022-11-16T10:54:50.278Z,77.47
2022-11-16T10:56:11.742Z,78.35
2022-11-16T10:57:14.438Z,82.77
2022-11-16T10:58:17.545Z,66.80
2022-11-16T10:59:20.942Z,73.57
2022-11-16T11:00:47.295Z,80.55
2022-11-16T11:01:57.598Z,72.47
2022-11-16T11:03:00.226Z,75.37
2022-11-16T11:04:22.857Z,77.72
2022-11-16T11:05:26.978Z,100.60
2022-11-16T11:06:29.812Z,80.68
2022-11-16T11:07:39.949Z,88.78
2022-11-16T11:08:43.035Z,105.83
2022-11-16T11:09:52.801Z,104.50
2022-11-16T11:11:24.256Z,86.78
2022-11-16T11:12:39.472Z,89.15
2022-11-16T11:13:42.120Z,88.00
2022-11-16T11:15:12.188Z,83.47
2022-11-16T11:16:17.882Z,111.28
2022-11-16T11:17:20.419Z,85.20
2022-11-16T11:18:23.280Z,77.55
2022-11-16T11:19:29.567Z,82.53
2022-11-16T11:20:32.347Z,91.37
2022-11-16T11:21:35.267Z,108.33
2022-11-16T11:22:46.399Z,83.07
2022-11-16T11:23:52.443Z,104.12
2022-11-16T11:24:55.309Z,102.95
2022-11-16T11:26:00.370Z,73.87
2022-11-16T11:27:03.514Z,70.18
2022-11-16T11:28:18.780Z,80.50
2022-11-16T11:29:32.205Z,81.70
2022-11-16T11:30:36.198Z,75.25
2022-11-16T11:31:46.466Z,81.10
2022-11-16T11:32:50.525Z,81.00
2022-11-16T11:33:58.204Z,76.50
2022-11-16T11:35:02.995Z,66.53
2022-11-16T11:36:10.743Z,75.82
2022-11-16T11:37:26.009Z,91.85
2022-11-16T11:38:29.847Z,87.28
2022-11-16T11:39:35.745Z,91.50
2022-11-16T11:40:38.750Z,124.55
2022-11-16T11:41:44.635Z,101.82
2022-11-16T11:42:59.200Z,104.70
2022-11-16T11:44:20.839Z,134.73
2022-11-16T11:45:27.906Z,104.57
2022-11-16T11:47:18.268Z,125.20
2022-11-16T11:48:05.963Z,98.85
2022-11-16T11:49:35.073Z,111.35
2022-11-16T11:50:56.889Z,96.15
2022-11-16T11:52:06.760Z,84.47
2022-11-16T11:53:12.185Z,79.85
2022-11-16T11:54:29.203Z,92.20
2022-11-16T11:55:31.918Z,79.87
2022-11-16T11:56:34.930Z,90.40
2022-11-16T11:57:42.332Z,85.87
2022-11-16T11:58:47.067Z,100.22
2022-11-16T11:59:53.041Z,80.65
2022-11-16T12:00:56.153Z,79.12
2022-11-16T12:02:04.920Z,99.85
2022-11-16T12:03:19.748Z,104.30
2022-11-16T12:05:00.910Z,104.15
2022-11-16T12:06:18.786Z,110.57
2022-11-16T12:07:46.366Z,95.73
2022-11-16T12:09:18.666Z,66.53
2022-11-16T12:10:46.443Z,88.62
2022-11-16T12:12:13.333Z,65.15
2022-11-16T12:13:22.269Z,107.28
2022-11-16T12:14:49.477Z,101.25
2022-11-16T12:16:19.262Z,86.00
2022-11-16T12:17:44.402Z,78.07
2022-11-16T12:19:08.620Z,80.40
2022-11-16T12:20:46.733Z,72.10
2022-11-16T12:21:49.349Z,75.47
2022-11-16T12:23:04.309Z,75.20
2022-11-16T12:24:07.562Z,76.47
2022-11-16T12:25:18.991Z,75.18
2022-11-16T12:26:40.099Z,80.90
2022-11-16T12:28:16.117Z,80.15
2022-11-16T12:29:29.590Z,72.85
2022-11-16T12:30:37.969Z,78.37
2022-11-16T12:32:09.187Z,77.22
2022-11-16T12:33:48.493Z,71.07
2022-11-16T12:35:12.555Z,112.87
2022-11-16T12:36:37.104Z,87.77
2022-11-16T12:38:04.656Z,79.75
2022-11-16T12:40:05.087Z,120.00
2022-11-16T12:41:31.808Z,112.12
2022-11-16T12:53:48.866Z,94.97
2022-11-16T12:55:27.250Z,88.50
2022-11-16T12:56:49.431Z,84.82
2022-11-16T12:58:11.707Z,92.10
2022-11-16T12:59:24.810Z,85.00
2022-11-16T13:00:30.324Z,87.70
2022-11-16T13:01:38.069Z,83.90
2022-11-16T13:03:29.518Z,85.33
2022-11-16T13:04:42.449Z,79.33
2022-11-16T13:06:03.752Z,76.75
2022-11-16T13:07:19.551Z,77.45
2022-11-16T13:08:37.691Z,83.62
2022-11-16T13:09:44.780Z,97.03
2022-11-16T13:10:50.845Z,89.45
2022-11-16T13:12:01.827Z,80.05
2022-11-16T13:13:35.370Z,82.00
2022-11-16T13:14:41.152Z,82.22
2022-11-16T13:15:47.985Z,73.53
2022-11-16T13:16:52.202Z,74.60
2022-11-16T13:18:01.951Z,80.97
2022-11-16T13:19:07.520Z,73.82
2022-11-16T13:20:16.031Z,73.05
2022-11-16T13:21:40.454Z,86.22
2022-11-16T13:22:55.833Z,86.53
2022-11-16T13:24:18.010Z,74.15
2022-11-16T13:26:10.699Z,71.82
2022-11-16T13:27:36.558Z,73.82
2022-11-16T13:28:54.721Z,82.13
2022-11-16T13:30:15.772Z,75.47
2022-11-16T13:31:24.008Z,73.70
2022-11-16T13:32:32.733Z,81.93
2022-11-16T13:33:49.299Z,84.13
2022-11-16T13:34:54.528Z,77.53
2022-11-16T13:35:57.162Z,75.30
2022-11-16T13:37:00.440Z,84.87
2022-11-16T13:38:03.378Z,87.32
2022-11-16T13:39:08.339Z,78.00
2022-11-16T13:40:23.129Z,81.37
2022-11-16T13:41:32.741Z,74.40
2022-11-16T13:42:43.062Z,71.87
2022-11-16T13:43:50.036Z,135.15
2022-11-16T13:44:53.739Z,117.20
2022-11-16T13:46:03.964Z,101.05
2022-11-16T13:47:18.360Z,94.05
2022-11-16T13:48:23.611Z,92.80
2022-11-16T13:49:33.775Z,79.95
2022-11-16T13:50:46.493Z,73.32
2022-11-16T13:52:40.175Z,106.53
2022-11-16T13:55:32.270Z,115.00
2022-11-16T13:56:51.736Z,102.15
2022-11-16T13:57:58.058Z,87.60
2022-11-16T13:59:01.002Z,75.55
2022-11-16T14:00:08.628Z,78.87
2022-11-16T14:01:17.170Z,77.18
2022-11-16T14:02:32.603Z,93.18
2022-11-16T14:03:40.678Z,75.85
2022-11-16T14:05:01.716Z,84.40
2022-11-16T14:06:20.500Z,90.80
2022-11-16T14:07:52.392Z,83.32
2022-11-16T14:08:57.111Z,85.85
2022-11-16T14:10:01.018Z,99.07
2022-11-16T14:11:05.838Z,87.97
2022-11-16T14:12:46.136Z,91.05
2022-11-16T14:13:49.111Z,86.90
2022-11-16T14:15:24.081Z,99.87
2022-11-16T14:16:27.685Z,106.03
2022-11-16T14:17:53.346Z,91.13
2022-11-16T14:19:01.359Z,100.77
2022-11-16T14:20:04.773Z,88.22
2022-11-16T14:21:19.278Z,95.62
2022-11-16T14:22:41.939Z,80.03
2022-11-16T14:23:47.278Z,93.72
2022-11-16T14:24:57.980Z,90.62
2022-11-16T14:26:38.121Z,93.53
2022-11-16T14:27:51.660Z,91.10
2022-11-16T14:29:07.962Z,91.30
2022-11-16T14:30:24.743Z,112.43
2022-11-16T14:31:46.424Z,100.63
2022-11-16T14:32:54.917Z,122.93
2022-11-16T14:34:00.135Z,138.40
2022-11-16T14:35:06.531Z,143.65
2022-11-16T14:36:10.816Z,119.18
2022-11-16T14:37:36.093Z,112.07
2022-11-16T14:38:41.947Z,143.52
2022-11-16T14:39:45.131Z,105.57
2022-11-16T14:40:56.208Z,102.57
2022-11-16T14:42:17.683Z,96.93
2022-11-16T14:43:45.698Z,89.47
2022-11-16T14:44:50.136Z,95.90
2022-11-16T14:45:56.901Z,97.22
2022-11-16T14:47:01.023Z,108.22
2022-11-16T14:48:14.637Z,99.60
2022-11-16T14:49:18.325Z,136.52
2022-11-16T14:50:27.119Z,130.07
2022-11-16T14:51:31.957Z,111.43
2022-11-16T14:52:47.718Z,96.80
2022-11-16T14:53:59.646Z,88.50
2022-11-16T14:55:06.672Z,88.83
2022-11-16T14:56:16.045Z,106.28